Time;durP1;ratioP1;P1;durP2;ratioP2;P2;SDS_P1;SDS_P2;PMS_P1;PMS_P2;Temp;Humidity;BMP_temperature;BMP_pressure;BME280_temperature;BME280_humidity;BME280_pressure;Samples;Min_cycle;Max_cycle;Signal;HPM_P1;HPM_P2
2022/10/12 00:00:00;;;;;;;4.18;1.63;;;8.10;99.90;;;;;;5053682;28;20032;-82
2022/10/12 00:02:25;;;;;;;9.15;2.20;;;8.10;99.90;;;;;;5070017;28;20123;-82
2022/10/12 00:04:51;;;;;;;4.38;1.52;;;8.20;99.90;;;;;;5070120;28;20174;-82
2022/10/12 00:07:17;;;;;;;7.00;2.25;;;8.20;99.90;;;;;;5051876;28;20067;-82
2022/10/12 00:09:42;;;;;;;7.82;2.20;;;8.30;99.90;;;;;;5070155;28;20127;-82
2022/10/12 00:12:08;;;;;;;11.50;4.95;;;8.30;99.90;;;;;;5067090;28;20494;-82
2022/10/12 00:14:37;;;;;;;12.55;5.90;;;8.40;99.90;;;;;;5053581;28;20048;-82
2022/10/12 00:17:03;;;;;;;15.10;4.60;;;8.40;99.90;;;;;;5053457;28;20047;-82
2022/10/12 00:19:28;;;;;;;7.97;2.75;;;8.40;99.90;;;;;;5052889;28;20037;-82
2022/10/12 00:21:54;;;;;;;6.18;2.13;;;8.40;99.90;;;;;;5070017;28;20025;-82
2022/10/12 00:24:19;;;;;;;5.75;1.77;;;8.50;99.90;;;;;;5053421;28;20375;-82
2022/10/12 00:26:45;;;;;;;5.60;1.50;;;8.50;99.90;;;;;;5069817;28;20048;-82
2022/10/12 00:29:10;;;;;;;3.90;1.27;;;8.50;99.90;;;;;;5053070;28;20064;-82
2022/10/12 00:31:36;;;;;;;5.55;1.80;;;8.50;99.90;;;;;;5070027;28;20032;-82
2022/10/12 00:34:03;;;;;;;4.93;1.40;;;8.50;99.90;;;;;;5069922;28;20859;-82
2022/10/12 00:36:31;;;;;;;7.60;2.13;;;8.50;99.90;;;;;;5069803;28;20047;-82
2022/10/12 00:38:58;;;;;;;12.90;4.22;;;8.40;99.90;;;;;;5053142;28;20106;-82
2022/10/12 00:41:29;;;;;;;15.82;5.88;;;8.40;99.90;;;;;;5066527;28;20472;-82
2022/10/12 00:43:56;;;;;;;5.00;1.83;;;8.40;99.90;;;;;;5070180;28;20089;-81
2022/10/12 00:46:37;;;;;;;5.93;1.65;;;8.40;99.90;;;;;;5070292;28;20037;-82
2022/10/12 00:49:09;;;;;;;5.50;1.35;;;8.40;99.90;;;;;;5069797;28;20048;-82
2022/10/12 00:51:36;;;;;;;3.88;1.30;;;8.30;99.90;;;;;;5069997;28;20397;-82
2022/10/12 00:54:07;;;;;;;4.45;1.63;;;8.30;99.90;;;;;;5070576;28;20402;-82
2022/10/12 00:56:36;;;;;;;6.10;1.50;;;8.20;99.90;;;;;;5069794;28;20571;-82
2022/10/12 00:59:06;;;;;;;4.43;1.30;;;8.20;99.90;;;;;;5070221;28;20037;-82
2022/10/12 01:01:34;;;;;;;4.32;1.30;;;8.10;99.90;;;;;;5053199;28;20040;-82
2022/10/12 01:04:00;;;;;;;3.85;1.70;;;8.10;99.90;;;;;;5069757;28;20123;-82
2022/10/12 01:06:26;;;;;;;5.85;1.77;;;8.00;99.90;;;;;;5070531;28;20056;-82
2022/10/12 01:08:53;;;;;;;6.35;1.80;;;8.00;99.90;;;;;;5057535;28;20044;-82
2022/10/12 01:11:19;;;;;;;4.85;1.60;;;7.90;99.90;;;;;;5056892;28;20107;-82
2022/10/12 01:13:44;;;;;;;4.93;1.80;;;7.90;99.90;;;;;;5073869;28;20520;-82
2022/10/12 01:16:17;;;;;;;4.60;1.40;;;7.90;99.90;;;;;;5073822;28;20033;-82
2022/10/12 01:19:05;;;;;;;3.25;1.35;;;7.80;99.90;;;;;;5073709;28;20076;-82
2022/10/12 01:21:36;;;;;;;6.90;2.03;;;7.90;99.90;;;;;;5022899;28;20049;-82
2022/10/12 01:24:16;;;;;;;7.70;2.15;;;7.80;99.90;;;;;;5057245;28;20033;-82
2022/10/12 01:26:53;;;;;;;7.95;2.05;;;7.90;99.90;;;;;;5073137;28;20458;-82
2022/10/12 01:29:49;;;;;;;5.53;1.98;;;7.80;99.90;;;;;;5073604;28;20094;-81
2022/10/12 01:32:25;;;;;;;7.82;2.08;;;7.80;99.90;;;;;;5073184;28;20079;-82
2022/10/12 01:35:08;;;;;;;6.22;2.22;;;7.80;99.90;;;;;;5056718;28;20037;-82
2022/10/12 01:37:48;;;;;;;9.00;2.60;;;7.80;99.90;;;;;;5073379;28;20040;-81
2022/10/12 01:40:21;;;;;;;6.40;2.70;;;7.80;99.90;;;;;;5073757;28;20117;-82
2022/10/12 01:42:47;;;;;;;9.50;3.00;;;7.80;99.90;;;;;;5073035;28;20497;-82
2022/10/12 01:45:17;;;;;;;8.68;3.45;;;7.80;99.90;;;;;;5073434;28;20044;-82
2022/10/12 01:47:47;;;;;;;7.38;2.83;;;7.80;99.90;;;;;;5073328;28;20123;-82
2022/10/12 01:50:14;;;;;;;9.18;3.08;;;7.80;99.90;;;;;;5056609;28;20489;-82
2022/10/12 01:52:48;;;;;;;8.48;3.80;;;7.90;99.90;;;;;;5056542;28;20437;-82
2022/10/12 01:55:26;;;;;;;7.60;2.67;;;7.90;99.90;;;;;;5073083;28;20047;-81
2022/10/12 01:58:09;;;;;;;9.45;2.95;;;7.90;99.90;;;;;;5056358;28;20098;-81
2022/10/12 02:00:43;;;;;;;8.70;2.95;;;7.90;99.90;;;;;;5072792;28;20120;-82
2022/10/12 02:03:31;;;;;;;7.47;2.83;;;7.90;99.90;;;;;;5072993;28;20119;-82
2022/10/12 02:06:07;;;;;;;8.68;3.30;;;7.90;99.90;;;;;;5072865;28;20036;-82
2022/10/12 02:08:54;;;;;;;7.45;2.33;;;7.90;99.90;;;;;;5072784;28;20486;-82
2022/10/12 02:11:23;;;;;;;7.25;2.60;;;7.90;99.90;;;;;;5055817;28;20037;-82
2022/10/12 02:14:02;;;;;;;6.47;2.50;;;7.80;99.90;;;;;;5072906;28;20039;-82
2022/10/12 02:16:33;;;;;;;7.38;2.50;;;7.80;99.90;;;;;;5056051;28;20044;-81
2022/10/12 02:19:01;;;;;;;10.40;2.42;;;7.70;99.90;;;;;;5071729;28;20127;-82
2022/10/12 02:21:31;;;;;;;10.07;2.58;;;7.70;99.90;;;;;;5072357;28;20037;-81
2022/10/12 02:24:01;;;;;;;7.45;2.60;;;7.80;99.90;;;;;;5056274;28;20083;-82
2022/10/12 02:26:28;;;;;;;7.30;3.10;;;7.80;99.90;;;;;;5072565;28;20410;-82
2022/10/12 02:28:55;;;;;;;6.82;2.60;;;7.80;99.90;;;;;;5055968;28;20071;-81
2022/10/12 02:31:36;;;;;;;9.50;3.25;;;7.70;99.90;;;;;;5072277;28;20517;-81
2022/10/12 02:34:10;;;;;;;8.60;3.13;;;7.80;99.90;;;;;;5072509;28;20056;-82
2022/10/12 02:36:44;;;;;;;13.25;4.03;;;7.80;99.90;;;;;;5072448;28;20044;-82
2022/10/12 02:39:22;;;;;;;10.77;3.38;;;7.80;99.90;;;;;;5055579;28;20040;-82
2022/10/12 02:41:56;;;;;;;9.10;3.22;;;7.80;99.90;;;;;;5072083;28;20047;-82
2022/10/12 02:44:30;;;;;;;10.48;3.70;;;7.80;99.90;;;;;;5072597;28;20127;-82
2022/10/12 02:46:57;;;;;;;10.90;5.18;;;7.80;99.90;;;;;;5072256;28;20502;-81
2022/10/12 02:49:25;;;;;;;8.45;3.80;;;7.80;99.90;;;;;;5072036;28;20089;-82
2022/10/12 02:51:53;;;;;;;6.50;2.88;;;7.70;99.90;;;;;;5071900;28;20040;-82
2022/10/12 02:54:19;;;;;;;8.82;3.05;;;7.70;99.90;;;;;;5071987;28;20193;-82
2022/10/12 02:56:46;;;;;;;5.18;1.95;;;7.60;99.90;;;;;;5071968;28;20495;-82
2022/10/12 02:59:17;;;;;;;7.30;2.65;;;7.60;99.90;;;;;;5072007;28;20036;-82
2022/10/12 03:01:42;;;;;;;7.65;3.15;;;7.60;99.90;;;;;;5055184;28;20032;-82
2022/10/12 03:04:08;;;;;;;9.73;3.50;;;7.60;99.90;;;;;;5055186;28;20171;-82
2022/10/12 03:06:34;;;;;;;6.03;1.90;;;7.50;99.90;;;;;;5071816;28;20105;-81
2022/10/12 03:09:00;;;;;;;10.20;2.20;;;7.50;99.90;;;;;;5071656;28;20485;-81
2022/10/12 03:11:26;;;;;;;5.05;2.20;;;7.50;99.90;;;;;;5055051;28;20059;-82
2022/10/12 03:13:53;;;;;;;5.72;2.22;;;7.40;99.90;;;;;;5071539;28;20040;-82
2022/10/12 03:16:18;;;;;;;7.13;3.08;;;7.40;99.90;;;;;;5054922;28;20493;-82
2022/10/12 03:18:44;;;;;;;7.10;2.65;;;7.40;99.90;;;;;;5071797;28;20043;-82
2022/10/12 03:21:09;;;;;;;7.07;2.63;;;7.40;99.90;;;;;;5071289;28;20033;-81
2022/10/12 03:23:35;;;;;;;7.07;2.90;;;7.40;99.90;;;;;;5071222;28;20044;-82
2022/10/12 03:26:01;;;;;;;6.85;2.90;;;7.40;99.90;;;;;;5071742;28;20075;-82
2022/10/12 03:28:27;;;;;;;7.10;2.33;;;7.40;99.90;;;;;;5071416;28;20068;-82
2022/10/12 03:30:53;;;;;;;7.47;2.80;;;7.40;99.90;;;;;;5054463;28;20375;-82
2022/10/12 03:33:19;;;;;;;9.00;3.25;;;7.40;99.90;;;;;;5071687;28;20058;-82
2022/10/12 03:35:45;;;;;;;8.82;3.63;;;7.30;99.90;;;;;;5071350;28;20037;-82
2022/10/12 03:38:12;;;;;;;13.70;3.22;;;7.40;99.90;;;;;;5054525;28;20124;-82
2022/10/12 03:40:38;;;;;;;12.05;3.97;;;7.40;99.90;;;;;;5071332;28;20570;-82
2022/10/12 03:43:04;;;;;;;9.60;3.80;;;7.30;99.90;;;;;;5070910;28;20119;-82
2022/10/12 03:45:29;;;;;;;8.68;3.22;;;7.30;99.90;;;;;;5054496;28;20121;-82
2022/10/12 03:47:55;;;;;;;8.15;2.97;;;7.30;99.90;;;;;;5072394;28;20041;-82
2022/10/12 03:50:21;;;;;;;6.93;3.25;;;7.30;99.90;;;;;;5071995;28;20040;-82
2022/10/12 03:52:46;;;;;;;11.93;3.80;;;7.30;99.90;;;;;;5070803;28;20029;-82
2022/10/12 03:55:12;;;;;;;8.52;3.33;;;7.30;99.90;;;;;;5070963;28;20555;-82
2022/10/12 03:57:38;;;;;;;8.32;3.22;;;7.30;99.90;;;;;;5054091;28;20464;-82
2022/10/12 04:00:04;;;;;;;13.02;4.28;;;7.30;99.90;;;;;;5054139;28;20051;-82
2022/10/12 04:02:30;;;;;;;8.35;3.50;;;7.30;99.90;;;;;;5070468;28;20493;-82
2022/10/12 04:04:55;;;;;;;11.40;3.88;;;7.30;99.90;;;;;;5054159;28;20036;-82
2022/10/12 04:07:21;;;;;;;7.40;3.45;;;7.30;99.90;;;;;;5070610;28;20045;-82
2022/10/12 04:09:46;;;;;;;12.05;4.32;;;7.30;99.90;;;;;;5070620;28;20040;-82
2022/10/12 04:12:12;;;;;;;9.93;3.55;;;7.30;99.90;;;;;;5053775;28;20041;-81
2022/10/12 04:14:38;;;;;;;11.93;4.30;;;7.30;99.90;;;;;;5070829;28;20074;-82
2022/10/12 04:17:04;;;;;;;9.05;3.65;;;7.30;99.90;;;;;;5070735;28;20490;-81
2022/10/12 04:19:30;;;;;;;11.90;3.92;;;7.20;99.90;;;;;;5053758;28;20089;-82
2022/10/12 04:21:55;;;;;;;11.00;3.78;;;7.20;99.90;;;;;;5070163;28;20036;-82
2022/10/12 04:24:21;;;;;;;9.50;3.63;;;7.20;99.90;;;;;;5070487;28;20028;-82
2022/10/12 04:26:47;;;;;;;10.45;3.47;;;7.20;99.90;;;;;;5070689;28;20039;-82
2022/10/12 04:29:13;;;;;;;11.52;3.63;;;7.20;99.90;;;;;;5070324;28;20494;-82
2022/10/12 04:31:39;;;;;;;8.10;3.45;;;7.20;99.90;;;;;;5070166;28;20098;-82
2022/10/12 04:34:04;;;;;;;11.80;4.07;;;7.10;99.90;;;;;;5070484;28;20052;-82
2022/10/12 04:36:30;;;;;;;12.52;3.70;;;7.10;99.90;;;;;;5070351;28;20134;-82
2022/10/12 04:38:55;;;;;;;10.52;4.18;;;7.10;99.90;;;;;;5070430;28;20501;-82
2022/10/12 04:41:21;;;;;;;8.65;4.63;;;7.10;99.90;;;;;;5052541;28;20032;-82
2022/10/12 04:43:47;;;;;;;10.07;4.53;;;7.10;99.90;;;;;;5070657;28;20036;-82
2022/10/12 04:46:12;;;;;;;9.00;4.35;;;7.10;99.90;;;;;;5070592;28;20040;-82
2022/10/12 04:48:38;;;;;;;11.98;4.38;;;7.10;99.90;;;;;;5070269;28;20501;-82
2022/10/12 04:51:04;;;;;;;8.63;3.67;;;7.00;99.90;;;;;;5053190;28;20101;-81
2022/10/12 04:53:30;;;;;;;9.30;3.50;;;7.00;99.90;;;;;;5070147;28;20052;-82
2022/10/12 04:55:56;;;;;;;10.68;4.00;;;7.00;99.90;;;;;;5071603;28;20040;-82
2022/10/12 04:58:21;;;;;;;10.80;4.10;;;7.00;99.90;;;;;;5070324;28;20032;-82
2022/10/12 05:00:48;;;;;;;9.65;3.58;;;7.00;99.90;;;;;;5070198;28;20398;-82
2022/10/12 05:03:14;;;;;;;11.90;4.13;;;7.00;99.90;;;;;;5069971;28;20029;-81
2022/10/12 05:05:40;;;;;;;15.63;4.50;;;7.00;99.90;;;;;;5053305;28;20044;-82
2022/10/12 05:08:05;;;;;;;9.23;3.72;;;6.90;99.90;;;;;;5070248;28;20170;-81
2022/10/12 05:10:31;;;;;;;10.30;4.35;;;6.90;99.90;;;;;;5070218;28;20130;-82
2022/10/12 05:12:57;;;;;;;11.57;4.07;;;6.90;99.90;;;;;;5069939;28;20645;-81
2022/10/12 05:15:22;;;;;;;10.93;4.35;;;6.90;99.90;;;;;;5071352;28;20051;-82
2022/10/12 05:17:48;;;;;;;11.10;3.50;;;6.80;99.90;;;;;;5053243;28;20076;-81
2022/10/12 05:20:14;;;;;;;9.60;3.50;;;6.80;99.90;;;;;;5069598;28;20033;-81
2022/10/12 05:22:39;;;;;;;8.77;4.00;;;6.80;99.90;;;;;;5069644;28;20036;-81
2022/10/12 05:25:06;;;;;;;11.77;4.03;;;6.80;99.90;;;;;;5069990;28;20043;-82
2022/10/12 05:27:32;;;;;;;11.88;4.00;;;6.80;99.90;;;;;;5069849;28;20052;-82
2022/10/12 05:29:57;;;;;;;8.73;3.78;;;6.70;99.90;;;;;;5069757;28;20040;-81
2022/10/12 05:32:23;;;;;;;11.07;3.97;;;6.70;99.90;;;;;;5069526;28;20040;-81
2022/10/12 05:34:49;;;;;;;8.25;3.05;;;6.70;99.90;;;;;;5069701;28;20078;-82
2022/10/12 05:37:15;;;;;;;8.02;2.92;;;6.70;99.90;;;;;;5069756;28;20045;-81
2022/10/12 05:39:41;;;;;;;9.80;3.58;;;6.70;99.90;;;;;;5069451;28;20043;-81
2022/10/12 05:42:06;;;;;;;14.57;5.35;;;6.70;99.90;;;;;;5069653;28;20047;-81
2022/10/12 05:44:32;;;;;;;13.35;4.32;;;6.60;99.90;;;;;;5069798;28;20040;-82
2022/10/12 05:46:58;;;;;;;9.30;4.05;;;6.60;99.90;;;;;;5069796;28;20040;-82
2022/10/12 05:49:23;;;;;;;10.23;3.95;;;6.60;99.90;;;;;;5068830;28;20041;-82
2022/10/12 05:51:49;;;;;;;10.60;4.15;;;6.60;99.90;;;;;;5052507;28;20182;-81
2022/10/12 05:54:15;;;;;;;11.00;4.40;;;6.60;99.90;;;;;;5055946;28;20038;-82
2022/10/12 05:56:41;;;;;;;9.85;5.13;;;6.60;99.90;;;;;;5056509;28;20051;-81
2022/10/12 05:59:07;;;;;;;12.02;4.55;;;6.60;99.90;;;;;;5073230;28;20418;-81
2022/10/12 06:01:32;;;;;;;10.95;4.70;;;6.60;99.90;;;;;;5056115;28;20512;-81
2022/10/12 06:03:58;;;;;;;11.85;4.80;;;6.60;99.90;;;;;;5072885;28;20044;-82
2022/10/12 06:06:23;;;;;;;10.38;3.75;;;6.60;99.90;;;;;;5072686;28;20044;-81
2022/10/12 06:08:49;;;;;;;10.55;3.92;;;6.60;99.90;;;;;;5072905;28;20044;-82
2022/10/12 06:11:14;;;;;;;8.25;3.42;;;6.60;99.90;;;;;;5055954;28;20086;-82
2022/10/12 06:13:40;;;;;;;11.25;4.07;;;6.50;99.90;;;;;;5072875;28;20483;-82
2022/10/12 06:16:06;;;;;;;10.60;4.50;;;6.60;99.90;;;;;;5072742;28;20119;-82
2022/10/12 06:18:31;;;;;;;10.85;3.88;;;6.60;99.90;;;;;;5072924;28;20040;-82
2022/10/12 06:20:57;;;;;;;9.63;4.05;;;6.60;99.90;;;;;;5072252;28;20083;-82
2022/10/12 06:23:23;;;;;;;9.77;3.60;;;6.60;99.90;;;;;;5072596;28;20098;-81
2022/10/12 06:25:50;;;;;;;12.23;4.63;;;6.60;99.90;;;;;;5072675;28;20032;-82
2022/10/12 06:28:18;;;;;;;12.23;3.75;;;6.60;99.90;;;;;;5072606;28;20040;-82
2022/10/12 06:30:45;;;;;;;13.45;4.10;;;6.50;99.90;;;;;;5072336;28;20040;-81
2022/10/12 06:33:10;;;;;;;9.70;4.03;;;6.50;99.90;;;;;;5055660;28;20048;-81
2022/10/12 06:35:37;;;;;;;12.30;3.78;;;6.50;99.90;;;;;;5055432;28;20048;-81
2022/10/12 06:38:03;;;;;;;9.68;3.97;;;6.50;99.90;;;;;;5072405;28;20036;-82
2022/10/12 06:40:28;;;;;;;7.72;3.17;;;6.50;99.90;;;;;;5072185;28;20127;-81
2022/10/12 06:42:54;;;;;;;7.88;3.25;;;6.50;99.90;;;;;;5055493;28;20075;-81
2022/10/12 06:45:19;;;;;;;7.35;3.08;;;6.50;99.90;;;;;;5072700;28;20410;-81
2022/10/12 06:47:45;;;;;;;10.15;4.22;;;6.50;99.90;;;;;;5072205;28;20179;-81
2022/10/12 06:50:11;;;;;;;8.63;3.72;;;6.50;99.90;;;;;;5072160;28;20505;-81
2022/10/12 06:52:37;;;;;;;9.77;4.25;;;6.50;99.90;;;;;;5071580;28;20043;-81
2022/10/12 06:55:04;;;;;;;9.77;3.60;;;6.50;99.90;;;;;;5072180;28;20067;-81
2022/10/12 06:57:29;;;;;;;9.15;3.80;;;6.50;99.90;;;;;;5071785;28;20052;-81
2022/10/12 06:59:55;;;;;;;8.40;3.70;;;6.50;99.90;;;;;;5071978;28;20036;-82
2022/10/12 07:02:21;;;;;;;9.32;3.70;;;6.50;99.90;;;;;;5054941;28;20043;-82
2022/10/12 07:04:50;;;;;;;10.15;4.18;;;6.50;99.90;;;;;;5054613;28;20445;-82
2022/10/12 07:07:16;;;;;;;14.32;5.15;;;6.60;99.90;;;;;;5071929;28;20068;-81
2022/10/12 07:09:41;;;;;;;11.05;4.15;;;6.60;99.90;;;;;;5071602;28;20079;-82
2022/10/12 07:12:07;;;;;;;10.10;5.60;;;6.70;99.90;;;;;;5055195;28;20036;-82
2022/10/12 07:14:32;;;;;;;10.75;4.93;;;6.70;99.90;;;;;;5071840;28;20094;-82
2022/10/12 07:16:58;;;;;;;12.45;4.85;;;6.80;99.90;;;;;;5071583;28;20061;-82
2022/10/12 07:19:24;;;;;;;12.77;5.20;;;6.80;99.90;;;;;;5071989;28;20051;-82
2022/10/12 07:21:50;;;;;;;13.68;6.18;;;6.90;99.90;;;;;;5054553;28;20036;-81
2022/10/12 07:24:15;;;;;;;13.63;6.03;;;6.90;99.90;;;;;;5054948;28;20032;-81
2022/10/12 07:26:41;;;;;;;15.43;5.75;;;7.00;99.90;;;;;;5054654;28;20090;-81
2022/10/12 07:29:07;;;;;;;14.38;6.10;;;7.10;99.90;;;;;;5054645;28;20059;-82
2022/10/12 07:31:32;;;;;;;17.23;6.53;;;7.20;99.90;;;;;;5051625;28;20414;-82
2022/10/12 07:33:58;;;;;;;16.30;6.47;;;7.20;99.90;;;;;;5071082;28;20083;-82
2022/10/12 07:36:23;;;;;;;13.88;5.78;;;7.30;99.90;;;;;;5070848;28;20406;-82
2022/10/12 07:38:49;;;;;;;11.98;5.03;;;7.30;99.90;;;;;;5070775;28;20485;-82
2022/10/12 07:41:15;;;;;;;13.68;6.13;;;7.40;99.90;;;;;;5069494;28;20060;-82
2022/10/12 07:43:42;;;;;;;11.20;5.10;;;7.50;99.90;;;;;;5066640;28;20040;-81
2022/10/12 07:46:08;;;;;;;15.57;5.15;;;7.50;99.90;;;;;;5068954;28;20032;-82
2022/10/12 07:48:34;;;;;;;12.48;5.57;;;7.60;99.90;;;;;;5052834;28;20115;-82
2022/10/12 07:51:04;;;;;;;12.30;5.43;;;7.70;99.90;;;;;;5068808;28;20658;-82
2022/10/12 07:53:30;;;;;;;14.70;6.15;;;7.80;99.90;;;;;;5070343;28;20032;-81
2022/10/12 07:56:00;;;;;;;14.30;5.60;;;7.90;99.90;;;;;;5070339;28;20085;-81
2022/10/12 07:58:26;;;;;;;13.70;5.78;;;8.00;99.90;;;;;;5070595;28;20398;-82
2022/10/12 08:00:52;;;;;;;13.65;4.78;;;8.10;99.90;;;;;;5070033;28;20033;-82
2022/10/12 08:03:17;;;;;;;13.73;5.65;;;8.20;99.90;;;;;;5069430;28;20048;-82
2022/10/12 08:05:43;;;;;;;16.92;5.85;;;8.40;99.90;;;;;;5069913;28;20036;-82
2022/10/12 08:08:08;;;;;;;13.35;4.97;;;8.50;99.90;;;;;;5069459;28;20040;-81
2022/10/12 08:10:35;;;;;;;14.45;4.60;;;8.70;99.90;;;;;;5052702;28;20043;-82
2022/10/12 08:13:00;;;;;;;14.52;4.97;;;8.80;99.90;;;;;;5068897;28;20119;-82
2022/10/12 08:15:26;;;;;;;11.65;5.03;;;8.80;99.90;;;;;;5069949;28;20133;-82
2022/10/12 08:17:52;;;;;;;14.13;4.85;;;8.90;99.90;;;;;;5069323;28;20401;-82
2022/10/12 08:20:17;;;;;;;13.88;4.95;;;9.00;99.90;;;;;;5070194;28;20473;-82
2022/10/12 08:22:43;;;;;;;15.90;4.97;;;9.10;99.90;;;;;;5069718;28;20548;-81
2022/10/12 08:25:08;;;;;;;20.30;6.55;;;9.20;99.90;;;;;;5053531;28;20048;-82
2022/10/12 08:27:34;;;;;;;14.45;5.47;;;9.30;99.90;;;;;;5070183;28;20037;-82
2022/10/12 08:30:00;;;;;;;16.58;4.78;;;9.40;99.90;;;;;;5069926;28;20587;-82
2022/10/12 08:32:26;;;;;;;13.30;4.40;;;9.40;99.90;;;;;;5069497;28;20032;-82
2022/10/12 08:34:52;;;;;;;15.95;5.45;;;9.50;99.90;;;;;;5069935;28;20048;-82
2022/10/12 08:37:17;;;;;;;17.95;5.57;;;9.50;99.90;;;;;;5069751;28;20044;-82
2022/10/12 08:39:43;;;;;;;12.93;5.60;;;9.60;99.90;;;;;;5069841;28;20132;-82
2022/10/12 08:42:26;;;;;;;16.48;5.68;;;9.70;99.90;;;;;;5069409;28;20032;-82
2022/10/12 08:45:12;;;;;;;15.52;5.45;;;9.70;99.90;;;;;;5053044;28;20494;-82
2022/10/12 08:47:45;;;;;;;17.88;5.40;;;9.80;99.90;;;;;;5053365;28;20080;-82
2022/10/12 08:50:22;;;;;;;12.25;5.03;;;9.90;99.90;;;;;;5069948;28;20140;-82
2022/10/12 08:53:00;;;;;;;13.38;5.47;;;9.90;99.90;;;;;;5069497;28;20045;-82
2022/10/12 08:55:38;;;;;;;15.45;4.80;;;10.00;99.90;;;;;;5069725;28;20090;-82
2022/10/12 08:58:14;;;;;;;12.63;5.32;;;10.00;99.90;;;;;;5053062;28;20055;-82
2022/10/12 09:00:41;;;;;;;14.65;5.28;;;10.10;99.90;;;;;;5069487;28;20036;-82
2022/10/12 09:03:43;;;;;;;17.55;5.60;;;10.20;99.90;;;;;;5052717;28;20036;-82
2022/10/12 09:06:43;;;;;;;17.17;6.45;;;10.20;99.90;;;;;;5069816;28;20076;-82
2022/10/12 09:09:40;;;;;;;14.30;5.57;;;10.30;99.90;;;;;;5025508;28;20095;-82
2022/10/12 09:12:38;;;;;;;14.48;5.22;;;10.30;99.90;;;;;;5069151;28;20039;-82
2022/10/12 09:15:10;;;;;;;14.63;5.43;;;10.40;99.90;;;;;;5069565;28;20036;-82
2022/10/12 09:17:42;;;;;;;16.25;5.70;;;10.50;99.90;;;;;;5069366;28;20099;-82
2022/10/12 09:20:21;;;;;;;19.95;6.32;;;10.50;99.90;;;;;;5068908;28;20090;-82
2022/10/12 09:22:57;;;;;;;13.52;5.55;;;10.60;99.90;;;;;;5052623;28;20102;-82
2022/10/12 09:25:25;;;;;;;15.35;6.00;;;10.60;99.90;;;;;;5052376;28;20039;-82
2022/10/12 09:27:52;;;;;;;16.50;5.95;;;10.60;99.90;;;;;;5052854;28;20033;-82
2022/10/12 09:30:19;;;;;;;13.80;6.32;;;10.70;99.90;;;;;;5072680;28;20033;-82
2022/10/12 09:33:06;;;;;;;14.10;6.40;;;10.70;99.90;;;;;;5054815;28;20119;-83
2022/10/12 09:35:32;;;;;;;14.18;8.43;;;10.80;99.90;;;;;;5074192;28;20047;-83
2022/10/12 09:37:59;;;;;;;20.48;6.47;;;10.90;99.90;;;;;;5073000;28;20044;-82
2022/10/12 09:40:29;;;;;;;20.77;5.97;;;11.00;99.90;;;;;;5072971;28;20039;-83
2022/10/12 09:42:58;;;;;;;12.25;5.07;;;11.00;99.90;;;;;;5072725;28;20196;-83
2022/10/12 09:45:24;;;;;;;19.00;6.13;;;11.00;99.90;;;;;;5072433;28;20071;-83
2022/10/12 09:48:14;;;;;;;16.05;6.22;;;11.10;99.90;;;;;;5070967;28;20040;-82
2022/10/12 09:50:56;;;;;;;14.68;5.35;;;11.10;99.90;;;;;;5070512;28;20048;-83
2022/10/12 09:53:27;;;;;;;14.00;4.80;;;11.20;99.90;;;;;;5071407;28;20053;-83
2022/10/12 09:55:59;;;;;;;13.57;5.40;;;11.30;99.90;;;;;;5071897;28;20286;-83
2022/10/12 09:58:26;;;;;;;12.73;4.68;;;11.40;99.90;;;;;;5074600;28;20099;-83
2022/10/12 10:01:15;;;;;;;18.00;4.80;;;11.40;99.90;;;;;;5071504;28;20040;-82
2022/10/12 10:03:41;;;;;;;17.20;7.18;;;11.60;99.90;;;;;;5072763;28;20079;-82
2022/10/12 10:06:06;;;;;;;15.05;5.30;;;11.70;99.90;;;;;;5072988;28;20402;-83
2022/10/12 10:08:44;;;;;;;15.60;4.55;;;11.80;99.90;;;;;;5073024;28;20037;-83
2022/10/12 10:11:21;;;;;;;15.70;5.88;;;11.90;99.90;;;;;;5072594;28;20032;-83
2022/10/12 10:13:51;;;;;;;18.65;7.10;;;12.00;99.90;;;;;;5072854;28;20042;-83
2022/10/12 10:16:18;;;;;;;15.98;5.75;;;12.20;99.90;;;;;;5073041;28;20135;-83
2022/10/12 10:18:47;;;;;;;15.52;6.25;;;12.30;99.90;;;;;;5072941;28;20037;-83
2022/10/12 10:21:23;;;;;;;16.50;5.25;;;12.40;99.90;;;;;;5072453;28;20124;-82
2022/10/12 10:23:52;;;;;;;12.55;4.13;;;12.40;99.90;;;;;;5056150;28;20128;-82
2022/10/12 10:26:20;;;;;;;13.43;4.38;;;12.40;99.90;;;;;;5055854;28;20097;-82
2022/10/12 10:28:48;;;;;;;17.10;4.97;;;12.40;99.90;;;;;;5055985;28;20040;-83
2022/10/12 10:31:15;;;;;;;15.65;5.88;;;12.60;99.90;;;;;;5055550;28;20044;-83
2022/10/12 10:34:25;;;;;;;14.75;4.35;;;12.70;99.90;;;;;;5073960;28;20040;-82
2022/10/12 10:37:20;;;;;;;15.77;5.53;;;12.90;99.90;;;;;;5073779;28;20567;-82
2022/10/12 10:40:05;;;;;;;12.98;4.30;;;13.00;99.90;;;;;;5072746;28;20516;-82
2022/10/12 10:42:56;;;;;;;14.38;5.97;;;13.10;99.90;;;;;;5073475;28;20043;-82
2022/10/12 10:45:50;;;;;;;11.65;4.47;;;13.30;99.90;;;;;;5072163;28;20043;-83
2022/10/12 10:48:23;;;;;;;14.30;5.45;;;13.40;99.90;;;;;;5069602;28;20505;-83
2022/10/12 10:50:59;;;;;;;15.23;5.15;;;13.40;99.90;;;;;;5071747;28;20047;-83
2022/10/12 10:53:29;;;;;;;12.05;3.97;;;13.50;99.90;;;;;;5070618;28;20040;-83
2022/10/12 10:56:04;;;;;;;12.77;3.70;;;13.60;99.90;;;;;;5071987;28;20497;-83
2022/10/12 10:58:45;;;;;;;13.90;5.40;;;13.70;99.90;;;;;;5071776;28;20028;-83
2022/10/12 11:01:37;;;;;;;14.07;5.15;;;13.80;99.90;;;;;;5070612;28;20047;-83
2022/10/12 11:04:12;;;;;;;10.88;3.33;;;13.90;99.90;;;;;;5052374;28;20048;-83
2022/10/12 11:06:43;;;;;;;13.05;5.07;;;13.90;99.90;;;;;;5069346;28;20036;-83
2022/10/12 11:09:18;;;;;;;11.17;3.20;;;14.00;99.90;;;;;;5071667;28;20036;-82
2022/10/12 11:11:49;;;;;;;13.43;4.13;;;14.00;99.90;;;;;;5069646;28;20056;-83
2022/10/12 11:14:17;;;;;;;16.30;4.88;;;14.10;99.90;;;;;;5071317;28;20047;-83
2022/10/12 11:16:51;;;;;;;12.02;4.40;;;14.20;99.90;;;;;;5071261;28;20044;-82
2022/10/12 11:19:43;;;;;;;15.82;3.83;;;14.20;99.90;;;;;;5068948;28;20134;-83
2022/10/12 11:22:19;;;;;;;17.60;5.57;;;14.30;99.90;;;;;;5070892;28;20064;-83
2022/10/12 11:25:07;;;;;;;12.77;5.10;;;14.40;99.90;;;;;;5053057;28;20045;-83
2022/10/12 11:27:38;;;;;;;9.93;3.65;;;14.60;99.90;;;;;;5054404;28;20060;-83
2022/10/12 11:30:27;;;;;;;12.80;4.38;;;14.70;99.90;;;;;;5071283;28;20048;-83
2022/10/12 11:33:04;;;;;;;13.73;4.82;;;14.90;99.90;;;;;;5053706;28;20052;-83
2022/10/12 11:35:38;;;;;;;15.55;4.90;;;14.90;99.90;;;;;;5071439;28;20133;-83
2022/10/12 11:38:27;;;;;;;12.02;4.35;;;15.00;99.90;;;;;;5071304;28;20516;-83
2022/10/12 11:41:06;;;;;;;10.52;3.70;;;15.10;99.90;;;;;;5054301;28;20078;-85
2022/10/12 11:43:51;;;;;;;14.38;4.03;;;15.10;99.90;;;;;;5071216;28;20119;-84
2022/10/12 11:46:20;;;;;;;12.75;4.88;;;15.20;99.90;;;;;;5072436;28;20123;-84
2022/10/12 11:49:13;;;;;;;13.02;4.80;;;15.20;99.90;;;;;;5072504;28;20078;-84
2022/10/12 11:51:39;;;;;;;12.65;4.15;;;15.40;99.90;;;;;;5043205;28;20040;-83
2022/10/12 11:54:40;;;;;;;14.60;4.85;;;15.50;99.90;;;;;;5054330;28;20041;-84
2022/10/12 11:57:24;;;;;;;13.23;4.63;;;15.60;99.90;;;;;;5050959;28;20185;-84
2022/10/12 12:00:02;;;;;;;15.00;5.15;;;15.70;99.90;;;;;;5070968;28;20498;-84
2022/10/12 12:02:38;;;;;;;12.18;4.28;;;15.80;99.90;;;;;;5070815;28;20037;-84
2022/10/12 12:05:05;;;;;;;11.80;4.88;;;16.00;99.90;;;;;;5054208;28;20040;-84
2022/10/12 12:07:43;;;;;;;12.27;4.55;;;16.10;99.90;;;;;;5070697;28;20076;-84
2022/10/12 12:10:29;;;;;;;12.02;4.43;;;16.20;99.60;;;;;;5070714;28;20044;-84
2022/10/12 12:13:11;;;;;;;13.50;4.43;;;16.20;98.80;;;;;;5054144;28;20048;-83
2022/10/12 12:15:38;;;;;;;11.73;4.43;;;16.30;99.50;;;;;;5070708;28;20102;-84
2022/10/12 12:18:53;;;;;;;12.85;4.68;;;16.40;97.60;;;;;;5070638;28;20501;-84
2022/10/12 12:21:19;;;;;;;14.30;3.38;;;16.50;99.90;;;;;;5065648;28;20113;-83
2022/10/12 12:23:53;;;;;;;11.50;4.25;;;16.50;98.50;;;;;;5070546;28;20452;-84
2022/10/12 12:26:22;;;;;;;11.63;3.95;;;16.70;96.60;;;;;;5070458;28;20068;-84
2022/10/12 12:29:07;;;;;;;16.08;4.53;;;16.80;94.30;;;;;;5070518;28;20040;-83
2022/10/12 12:31:33;;;;;;;12.68;4.85;;;16.90;96.00;;;;;;5069867;28;20040;-83
2022/10/12 12:34:14;;;;;;;13.95;4.60;;;17.00;92.80;;;;;;5070613;28;20040;-84
2022/10/12 12:36:43;;;;;;;14.35;4.63;;;17.10;93.90;;;;;;5070659;28;20086;-84
2022/10/12 12:39:38;;;;;;;13.70;4.20;;;17.30;90.00;;;;;;5070346;28;20032;-84
2022/10/12 12:42:07;;;;;;;14.73;4.20;;;17.40;90.30;;;;;;5012496;28;20509;-84
2022/10/12 12:44:41;;;;;;;12.82;4.22;;;17.50;90.90;;;;;;4996710;28;20063;-83
2022/10/12 12:47:20;;;;;;;14.27;4.75;;;17.70;90.50;;;;;;5012805;28;20060;-84
2022/10/12 12:49:55;;;;;;;10.50;4.03;;;18.10;89.90;;;;;;5012722;28;20132;-84
2022/10/12 12:52:23;;;;;;;11.73;4.05;;;18.80;79.50;;;;;;5012434;28;20096;-84
2022/10/12 12:55:10;;;;;;;12.77;4.40;;;19.90;78.20;;;;;;5012627;28;20099;-84
2022/10/12 12:58:06;;;;;;;11.20;4.10;;;20.50;68.50;;;;;;5012727;28;20084;-84
2022/10/12 13:01:04;;;;;;;12.73;4.28;;;21.20;66.10;;;;;;5004321;28;20045;-84
2022/10/12 13:04:07;;;;;;;12.40;4.43;;;22.30;61.50;;;;;;4963380;28;20062;-84
2022/10/12 13:06:54;;;;;;;12.27;3.70;;;23.70;61.20;;;;;;5016288;28;20053;-84